To NAV CANADA Home Page Login to a new session Search on AWWS site Disclaimer Vers la page française équivalente Tips FAQ What's new on the site To the Forecasts and Observations / NOTAM section To "File a Flight Plan" website Publications and other links Update of the User's profile FIC Telephone Numbers My Weather Data Folder Route Weather Data Regional Weather Data Local Weather Data To the Forecasts and Observations / NOTAM section
Request Generated 11/13/2018 at 18:04:13 UTC . Weather information available at that time is displayed.

METAR/TAF

CHURCHILL/MB    (show WxCam)

METAR CYYQ 131800Z 31015G21KT 4SM -SN DRSN OVC021 M18/M21 A3024 RMK SC8 SLP244=
METAR CYYQ 131700Z 32019KT 8SM -SN DRSN OVC019 M18/M21 A3023 RMK SC8 SLP242=
SPECI CYYQ 131623Z 34017G25KT 12SM -SN DRSN BKN021 M17/M21 A3023 RMK SC7 SLP242=
METAR CYYQ 131600Z 34018G25KT 15SM IC DRSN BKN019 M17/M21 A3023 RMK SC7 SLP241=

TAF CYYQ 131738Z 1318/1418 32018G28KT 4SM -SN BKN020 TEMPO 1318/1404
P6SM NSW BKN025
FM140400 32015KT P6SM -SN BKN015
RMK NXT FCST BY 140000Z=
Your time UTC time
Weather data provided by Environment Canada and NAV CANADA